sensor_id;sensor_type;location;lat;lon;timestamp;P1;durP1;ratioP1;P2;durP2;ratioP2
55461;SDS011;41327;45.102;20.624;2022-07-23T15:13:38;5.07;;;4.45;;
55461;SDS011;41327;45.102;20.624;2022-07-23T15:16:04;6.40;;;4.35;;
55461;SDS011;41327;45.102;20.624;2022-07-23T15:18:30;6.18;;;4.28;;
55461;SDS011;41327;45.102;20.624;2022-07-23T15:20:57;5.60;;;4.65;;
55461;SDS011;41327;45.102;20.624;2022-07-23T15:23:22;5.15;;;4.20;;
55461;SDS011;41327;45.102;20.624;2022-07-23T15:25:48;7.47;;;4.40;;
55461;SDS011;41327;45.102;20.624;2022-07-23T15:28:14;6.40;;;4.80;;
55461;SDS011;41327;45.102;20.624;2022-07-23T15:30:39;7.22;;;4.45;;
55461;SDS011;41327;45.102;20.624;2022-07-23T15:33:05;5.15;;;4.03;;
55461;SDS011;41327;45.102;20.624;2022-07-23T15:35:31;4.90;;;3.90;;
55461;SDS011;41327;45.102;20.624;2022-07-23T15:37:57;5.07;;;4.20;;
55461;SDS011;41327;45.102;20.624;2022-07-23T15:40:22;7.25;;;3.90;;
55461;SDS011;41327;45.102;20.624;2022-07-23T15:42:48;5.35;;;4.07;;
55461;SDS011;41327;45.102;20.624;2022-07-23T15:45:14;5.97;;;4.20;;
55461;SDS011;41327;45.102;20.624;2022-07-23T15:47:40;8.93;;;4.47;;
55461;SDS011;41327;45.102;20.624;2022-07-23T15:50:06;8.85;;;4.85;;
55461;SDS011;41327;45.102;20.624;2022-07-23T15:52:32;5.90;;;4.50;;
55461;SDS011;41327;45.102;20.624;2022-07-23T15:54:58;6.45;;;4.32;;
55461;SDS011;41327;45.102;20.624;2022-07-23T15:57:26;5.07;;;4.57;;
55461;SDS011;41327;45.102;20.624;2022-07-23T16:00:15;5.57;;;4.55;;
55461;SDS011;41327;45.102;20.624;2022-07-23T16:02:42;6.18;;;4.10;;
55461;SDS011;41327;45.102;20.624;2022-07-23T16:05:12;6.03;;;4.32;;
55461;SDS011;41327;45.102;20.624;2022-07-23T16:07:38;5.22;;;4.25;;
55461;SDS011;41327;45.102;20.624;2022-07-23T16:10:04;4.82;;;4.10;;
55461;SDS011;41327;45.102;20.624;2022-07-23T16:12:30;4.28;;;3.88;;
55461;SDS011;41327;45.102;20.624;2022-07-23T16:14:56;8.77;;;4.13;;
55461;SDS011;41327;45.102;20.624;2022-07-23T16:17:21;7.65;;;4.47;;
55461;SDS011;41327;45.102;20.624;2022-07-23T16:19:47;5.45;;;4.82;;
55461;SDS011;41327;45.102;20.624;2022-07-23T16:22:12;7.88;;;4.15;;
55461;SDS011;41327;45.102;20.624;2022-07-23T16:24:41;7.47;;;4.80;;
55461;SDS011;41327;45.102;20.624;2022-07-23T16:27:07;6.53;;;4.00;;
55461;SDS011;41327;45.102;20.624;2022-07-23T16:29:32;5.20;;;3.85;;
55461;SDS011;41327;45.102;20.624;2022-07-23T16:31:58;6.80;;;4.25;;
55461;SDS011;41327;45.102;20.624;2022-07-23T16:34:23;7.57;;;3.75;;
55461;SDS011;41327;45.102;20.624;2022-07-23T16:36:49;6.38;;;4.00;;
55461;SDS011;41327;45.102;20.624;2022-07-23T16:39:14;4.57;;;4.18;;
55461;SDS011;41327;45.102;20.624;2022-07-23T16:41:40;7.20;;;4.45;;
55461;SDS011;41327;45.102;20.624;2022-07-23T16:44:05;5.68;;;3.97;;
55461;SDS011;41327;45.102;20.624;2022-07-23T16:46:31;5.50;;;4.80;;
55461;SDS011;41327;45.102;20.624;2022-07-23T16:48:56;5.10;;;4.22;;
55461;SDS011;41327;45.102;20.624;2022-07-23T16:51:22;4.35;;;3.95;;
55461;SDS011;41327;45.102;20.624;2022-07-23T16:53:48;6.15;;;4.80;;
55461;SDS011;41327;45.102;20.624;2022-07-23T16:56:14;7.18;;;4.25;;
55461;SDS011;41327;45.102;20.624;2022-07-23T16:58:40;8.73;;;4.35;;
55461;SDS011;41327;45.102;20.624;2022-07-23T17:01:05;4.65;;;4.25;;
55461;SDS011;41327;45.102;20.624;2022-07-23T17:03:31;6.90;;;4.47;;
55461;SDS011;41327;45.102;20.624;2022-07-23T17:05:57;5.32;;;3.85;;
55461;SDS011;41327;45.102;20.624;2022-07-23T17:08:22;4.72;;;3.92;;
55461;SDS011;41327;45.102;20.624;2022-07-23T17:10:48;4.40;;;3.85;;
55461;SDS011;41327;45.102;20.624;2022-07-23T17:13:14;4.97;;;4.45;;
55461;SDS011;41327;45.102;20.624;2022-07-23T17:15:39;5.00;;;4.38;;
55461;SDS011;41327;45.102;20.624;2022-07-23T17:18:05;6.07;;;4.18;;
55461;SDS011;41327;45.102;20.624;2022-07-23T17:20:30;5.07;;;4.07;;
55461;SDS011;41327;45.102;20.624;2022-07-23T17:22:56;8.43;;;4.47;;
55461;SDS011;41327;45.102;20.624;2022-07-23T17:25:21;5.35;;;4.55;;
55461;SDS011;41327;45.102;20.624;2022-07-23T17:27:47;8.73;;;4.47;;
55461;SDS011;41327;45.102;20.624;2022-07-23T17:30:13;7.22;;;4.38;;
55461;SDS011;41327;45.102;20.624;2022-07-23T17:32:40;6.63;;;4.47;;
55461;SDS011;41327;45.102;20.624;2022-07-23T17:35:06;5.45;;;4.53;;
55461;SDS011;41327;45.102;20.624;2022-07-23T17:37:33;6.03;;;4.57;;
55461;SDS011;41327;45.102;20.624;2022-07-23T17:39:59;7.68;;;4.90;;
55461;SDS011;41327;45.102;20.624;2022-07-23T17:42:24;10.65;;;4.63;;
55461;SDS011;41327;45.102;20.624;2022-07-23T17:44:50;5.40;;;4.65;;
55461;SDS011;41327;45.102;20.624;2022-07-23T17:47:15;6.40;;;4.97;;
55461;SDS011;41327;45.102;20.624;2022-07-23T17:49:41;6.60;;;4.97;;
55461;SDS011;41327;45.102;20.624;2022-07-23T17:52:06;5.75;;;4.75;;
55461;SDS011;41327;45.102;20.624;2022-07-23T17:54:32;4.88;;;4.38;;
55461;SDS011;41327;45.102;20.624;2022-07-23T17:56:58;6.35;;;5.28;;
55461;SDS011;41327;45.102;20.624;2022-07-23T17:59:24;8.10;;;4.63;;
55461;SDS011;41327;45.102;20.624;2022-07-23T18:01:50;7.45;;;4.90;;
55461;SDS011;41327;45.102;20.624;2022-07-23T18:04:17;10.68;;;5.88;;
55461;SDS011;41327;45.102;20.624;2022-07-23T18:06:43;6.18;;;5.18;;
55461;SDS011;41327;45.102;20.624;2022-07-23T18:09:09;7.50;;;5.57;;
55461;SDS011;41327;45.102;20.624;2022-07-23T18:11:36;10.18;;;5.90;;
55461;SDS011;41327;45.102;20.624;2022-07-23T18:14:05;7.78;;;5.97;;
55461;SDS011;41327;45.102;20.624;2022-07-23T18:16:32;9.70;;;6.20;;
55461;SDS011;41327;45.102;20.624;2022-07-23T18:18:58;8.45;;;5.70;;
55461;SDS011;41327;45.102;20.624;2022-07-23T18:21:23;9.40;;;5.60;;
55461;SDS011;41327;45.102;20.624;2022-07-23T18:23:49;6.95;;;5.78;;
55461;SDS011;41327;45.102;20.624;2022-07-23T18:26:15;8.48;;;5.43;;
55461;SDS011;41327;45.102;20.624;2022-07-23T18:28:40;10.75;;;5.68;;
55461;SDS011;41327;45.102;20.624;2022-07-23T18:31:06;9.25;;;5.75;;
55461;SDS011;41327;45.102;20.624;2022-07-23T18:33:32;6.82;;;5.50;;
55461;SDS011;41327;45.102;20.624;2022-07-23T18:35:58;8.10;;;5.47;;
55461;SDS011;41327;45.102;20.624;2022-07-23T18:38:24;7.10;;;5.35;;
55461;SDS011;41327;45.102;20.624;2022-07-23T18:40:50;7.45;;;5.20;;
55461;SDS011;41327;45.102;20.624;2022-07-23T18:43:16;6.10;;;5.35;;
55461;SDS011;41327;45.102;20.624;2022-07-23T18:45:42;10.88;;;6.82;;
55461;SDS011;41327;45.102;20.624;2022-07-23T18:48:08;9.07;;;6.65;;
55461;SDS011;41327;45.102;20.624;2022-07-23T18:50:34;9.77;;;5.95;;
55461;SDS011;41327;45.102;20.624;2022-07-23T18:53:02;12.75;;;6.22;;
55461;SDS011;41327;45.102;20.624;2022-07-23T18:55:28;18.95;;;6.72;;
55461;SDS011;41327;45.102;20.624;2022-07-23T18:57:54;8.40;;;6.22;;
55461;SDS011;41327;45.102;20.624;2022-07-23T19:00:20;13.98;;;6.40;;
55461;SDS011;41327;45.102;20.624;2022-07-23T19:02:45;14.77;;;7.03;;
55461;SDS011;41327;45.102;20.624;2022-07-23T19:05:11;14.55;;;6.50;;
55461;SDS011;41327;45.102;20.624;2022-07-23T19:07:37;11.15;;;6.18;;
55461;SDS011;41327;45.102;20.624;2022-07-23T19:10:04;15.32;;;6.82;;
55461;SDS011;41327;45.102;20.624;2022-07-23T19:12:31;12.57;;;6.93;;
55461;SDS011;41327;45.102;20.624;2022-07-23T19:14:56;12.30;;;6.35;;
55461;SDS011;41327;45.102;20.624;2022-07-23T19:17:22;12.70;;;7.03;;
55461;SDS011;41327;45.102;20.624;2022-07-23T19:19:47;13.60;;;7.72;;
55461;SDS011;41327;45.102;20.624;2022-07-23T19:22:13;13.55;;;7.50;;
55461;SDS011;41327;45.102;20.624;2022-07-23T19:24:39;11.18;;;6.78;;
55461;SDS011;41327;45.102;20.624;2022-07-23T19:27:07;19.25;;;7.45;;
55461;SDS011;41327;45.102;20.624;2022-07-23T19:29:33;17.90;;;7.75;;
55461;SDS011;41327;45.102;20.624;2022-07-23T19:32:00;19.17;;;8.13;;
55461;SDS011;41327;45.102;20.624;2022-07-23T19:34:27;15.25;;;8.27;;
55461;SDS011;41327;45.102;20.624;2022-07-23T19:36:53;11.32;;;7.72;;
55461;SDS011;41327;45.102;20.624;2022-07-23T19:39:18;15.07;;;7.97;;
55461;SDS011;41327;45.102;20.624;2022-07-23T19:41:44;19.70;;;8.35;;
55461;SDS011;41327;45.102;20.624;2022-07-23T19:44:09;17.30;;;8.40;;
55461;SDS011;41327;45.102;20.624;2022-07-23T19:46:35;18.02;;;7.95;;
55461;SDS011;41327;45.102;20.624;2022-07-23T19:49:01;17.55;;;7.40;;
55461;SDS011;41327;45.102;20.624;2022-07-23T19:51:27;19.73;;;7.90;;
55461;SDS011;41327;45.102;20.624;2022-07-23T19:53:53;14.52;;;7.78;;
55461;SDS011;41327;45.102;20.624;2022-07-23T19:56:19;12.60;;;7.10;;
55461;SDS011;41327;45.102;20.624;2022-07-23T19:58:46;11.07;;;6.47;;
55461;SDS011;41327;45.102;20.624;2022-07-23T20:01:14;18.88;;;9.18;;
55461;SDS011;41327;45.102;20.624;2022-07-23T20:03:40;17.33;;;8.23;;
55461;SDS011;41327;45.102;20.624;2022-07-23T20:06:06;14.38;;;6.90;;
55461;SDS011;41327;45.102;20.624;2022-07-23T20:08:31;13.50;;;6.78;;
55461;SDS011;41327;45.102;20.624;2022-07-23T20:10:57;11.95;;;7.60;;
55461;SDS011;41327;45.102;20.624;2022-07-23T20:13:22;15.60;;;6.63;;
55461;SDS011;41327;45.102;20.624;2022-07-23T20:15:48;11.18;;;7.07;;
55461;SDS011;41327;45.102;20.624;2022-07-23T20:18:14;12.32;;;7.18;;
55461;SDS011;41327;45.102;20.624;2022-07-23T20:20:40;14.35;;;9.18;;
55461;SDS011;41327;45.102;20.624;2022-07-23T20:23:06;14.45;;;7.65;;
55461;SDS011;41327;45.102;20.624;2022-07-23T20:25:31;16.70;;;7.78;;
55461;SDS011;41327;45.102;20.624;2022-07-23T20:27:57;10.95;;;7.45;;
55461;SDS011;41327;45.102;20.624;2022-07-23T20:30:25;9.35;;;7.05;;
55461;SDS011;41327;45.102;20.624;2022-07-23T20:32:51;11.15;;;7.22;;
55461;SDS011;41327;45.102;20.624;2022-07-23T20:35:16;13.13;;;6.82;;
55461;SDS011;41327;45.102;20.624;2022-07-23T20:37:42;9.45;;;8.00;;
55461;SDS011;41327;45.102;20.624;2022-07-23T20:40:08;9.48;;;6.57;;
55461;SDS011;41327;45.102;20.624;2022-07-23T20:42:34;9.95;;;6.95;;
55461;SDS011;41327;45.102;20.624;2022-07-23T20:45:01;8.85;;;7.47;;
55461;SDS011;41327;45.102;20.624;2022-07-23T20:47:29;11.50;;;6.97;;
55461;SDS011;41327;45.102;20.624;2022-07-23T20:49:57;8.98;;;6.22;;
55461;SDS011;41327;45.102;20.624;2022-07-23T20:52:35;8.68;;;6.30;;
55461;SDS011;41327;45.102;20.624;2022-07-23T20:55:15;10.95;;;6.25;;
55461;SDS011;41327;45.102;20.624;2022-07-23T20:57:42;12.18;;;6.80;;
55461;SDS011;41327;45.102;20.624;2022-07-23T21:00:09;8.88;;;5.90;;
55461;SDS011;41327;45.102;20.624;2022-07-23T21:02:36;10.00;;;6.47;;
55461;SDS011;41327;45.102;20.624;2022-07-23T21:05:01;12.00;;;6.32;;
55461;SDS011;41327;45.102;20.624;2022-07-23T21:07:28;8.98;;;6.22;;
55461;SDS011;41327;45.102;20.624;2022-07-23T21:09:53;7.75;;;6.70;;
55461;SDS011;41327;45.102;20.624;2022-07-23T21:12:19;8.40;;;6.20;;
55461;SDS011;41327;45.102;20.624;2022-07-23T21:14:45;7.10;;;6.10;;
55461;SDS011;41327;45.102;20.624;2022-07-23T21:17:11;8.45;;;6.22;;
55461;SDS011;41327;45.102;20.624;2022-07-23T21:19:37;7.45;;;6.75;;
55461;SDS011;41327;45.102;20.624;2022-07-23T21:22:03;7.78;;;6.60;;
55461;SDS011;41327;45.102;20.624;2022-07-23T21:24:29;9.57;;;6.20;;
55461;SDS011;41327;45.102;20.624;2022-07-23T21:26:54;10.40;;;6.72;;
55461;SDS011;41327;45.102;20.624;2022-07-23T21:29:20;12.68;;;7.18;;
55461;SDS011;41327;45.102;20.624;2022-07-23T21:31:45;8.93;;;6.10;;
55461;SDS011;41327;45.102;20.624;2022-07-23T21:34:12;7.22;;;6.30;;
55461;SDS011;41327;45.102;20.624;2022-07-23T21:36:38;8.98;;;6.97;;
55461;SDS011;41327;45.102;20.624;2022-07-23T21:39:03;11.38;;;7.03;;
55461;SDS011;41327;45.102;20.624;2022-07-23T21:41:30;8.35;;;6.55;;
55461;SDS011;41327;45.102;20.624;2022-07-23T21:43:56;9.15;;;7.05;;
55461;SDS011;41327;45.102;20.624;2022-07-23T21:46:25;9.82;;;6.75;;
55461;SDS011;41327;45.102;20.624;2022-07-23T21:48:51;6.90;;;6.20;;
55461;SDS011;41327;45.102;20.624;2022-07-23T21:51:16;7.72;;;6.13;;
55461;SDS011;41327;45.102;20.624;2022-07-23T21:53:42;9.57;;;6.13;;
55461;SDS011;41327;45.102;20.624;2022-07-23T21:56:08;8.32;;;6.97;;
55461;SDS011;41327;45.102;20.624;2022-07-23T21:58:33;7.72;;;6.68;;
55461;SDS011;41327;45.102;20.624;2022-07-23T22:00:59;8.73;;;6.43;;
55461;SDS011;41327;45.102;20.624;2022-07-23T22:03:25;11.43;;;6.82;;
55461;SDS011;41327;45.102;20.624;2022-07-23T22:05:50;10.30;;;7.15;;
55461;SDS011;41327;45.102;20.624;2022-07-23T22:08:16;8.38;;;7.25;;
55461;SDS011;41327;45.102;20.624;2022-07-23T22:10:41;8.88;;;6.85;;
55461;SDS011;41327;45.102;20.624;2022-07-23T22:13:07;8.40;;;6.97;;
55461;SDS011;41327;45.102;20.624;2022-07-23T22:15:32;7.05;;;6.45;;
55461;SDS011;41327;45.102;20.624;2022-07-23T22:17:58;7.70;;;6.40;;
55461;SDS011;41327;45.102;20.624;2022-07-23T22:20:23;7.63;;;6.90;;
55461;SDS011;41327;45.102;20.624;2022-07-23T22:22:49;7.53;;;6.63;;
55461;SDS011;41327;45.102;20.624;2022-07-23T22:25:15;7.55;;;6.85;;
55461;SDS011;41327;45.102;20.624;2022-07-23T22:27:42;8.32;;;7.28;;
55461;SDS011;41327;45.102;20.624;2022-07-23T22:30:09;8.88;;;6.80;;
55461;SDS011;41327;45.102;20.624;2022-07-23T22:32:36;7.90;;;6.85;;
55461;SDS011;41327;45.102;20.624;2022-07-23T22:35:01;9.45;;;6.95;;
55461;SDS011;41327;45.102;20.624;2022-07-23T22:37:28;8.70;;;7.25;;
55461;SDS011;41327;45.102;20.624;2022-07-23T22:39:53;8.63;;;7.35;;
55461;SDS011;41327;45.102;20.624;2022-07-23T22:42:19;8.38;;;7.28;;
55461;SDS011;41327;45.102;20.624;2022-07-23T22:44:45;8.15;;;7.25;;
55461;SDS011;41327;45.102;20.624;2022-07-23T22:47:10;8.00;;;7.20;;
55461;SDS011;41327;45.102;20.624;2022-07-23T22:49:35;9.32;;;7.80;;
55461;SDS011;41327;45.102;20.624;2022-07-23T22:52:01;11.07;;;7.60;;
55461;SDS011;41327;45.102;20.624;2022-07-23T22:54:27;10.70;;;7.22;;
55461;SDS011;41327;45.102;20.624;2022-07-23T22:56:52;8.70;;;7.68;;
55461;SDS011;41327;45.102;20.624;2022-07-23T22:59:18;8.57;;;7.78;;
55461;SDS011;41327;45.102;20.624;2022-07-23T23:01:43;8.20;;;7.38;;
55461;SDS011;41327;45.102;20.624;2022-07-23T23:04:09;12.73;;;8.60;;
55461;SDS011;41327;45.102;20.624;2022-07-23T23:06:34;10.10;;;8.43;;
55461;SDS011;41327;45.102;20.624;2022-07-23T23:09:00;9.70;;;7.47;;
55461;SDS011;41327;45.102;20.624;2022-07-23T23:11:26;10.80;;;8.27;;
55461;SDS011;41327;45.102;20.624;2022-07-23T23:13:51;11.88;;;8.85;;
55461;SDS011;41327;45.102;20.624;2022-07-23T23:16:16;11.30;;;8.50;;
55461;SDS011;41327;45.102;20.624;2022-07-23T23:18:42;10.15;;;8.20;;
55461;SDS011;41327;45.102;20.624;2022-07-23T23:21:07;8.52;;;7.63;;
55461;SDS011;41327;45.102;20.624;2022-07-23T23:23:33;10.85;;;7.70;;
55461;SDS011;41327;45.102;20.624;2022-07-23T23:25:58;9.82;;;8.30;;
55461;SDS011;41327;45.102;20.624;2022-07-23T23:28:24;11.90;;;9.32;;
55461;SDS011;41327;45.102;20.624;2022-07-23T23:30:49;12.32;;;8.55;;
55461;SDS011;41327;45.102;20.624;2022-07-23T23:33:15;10.05;;;7.97;;
55461;SDS011;41327;45.102;20.624;2022-07-23T23:35:40;10.15;;;8.73;;
55461;SDS011;41327;45.102;20.624;2022-07-23T23:38:06;10.00;;;8.73;;
55461;SDS011;41327;45.102;20.624;2022-07-23T23:40:31;10.00;;;8.60;;
55461;SDS011;41327;45.102;20.624;2022-07-23T23:42:57;10.88;;;8.30;;
55461;SDS011;41327;45.102;20.624;2022-07-23T23:45:22;9.15;;;8.25;;
55461;SDS011;41327;45.102;20.624;2022-07-23T23:47:48;13.73;;;9.23;;
55461;SDS011;41327;45.102;20.624;2022-07-23T23:50:14;10.02;;;8.70;;
55461;SDS011;41327;45.102;20.624;2022-07-23T23:52:39;11.25;;;7.95;;
55461;SDS011;41327;45.102;20.624;2022-07-23T23:55:05;8.73;;;7.75;;
55461;SDS011;41327;45.102;20.624;2022-07-23T23:57:32;9.45;;;7.22;;
55461;SDS011;41327;45.102;20.624;2022-07-23T23:59:57;8.80;;;7.22;;
